createdAt,value
2016-07-23T00:00:01.792Z,0
2016-07-23T00:01:01.768Z,0
2016-07-23T00:02:01.909Z,0
2016-07-23T00:03:01.780Z,0
2016-07-23T00:04:01.831Z,0
2016-07-23T00:05:01.747Z,0
2016-07-23T00:06:01.774Z,0
2016-07-23T00:07:01.751Z,0
2016-07-23T00:08:01.802Z,0
2016-07-23T00:09:01.767Z,0
2016-07-23T00:10:01.847Z,0
2016-07-23T00:11:01.844Z,0
2016-07-23T00:12:01.821Z,0
2016-07-23T00:13:01.831Z,0
2016-07-23T00:14:01.795Z,0
2016-07-23T00:15:01.771Z,0
2016-07-23T00:16:01.779Z,0
2016-07-23T00:17:01.752Z,0
2016-07-23T00:18:01.801Z,0
2016-07-23T00:19:01.802Z,0
2016-07-23T00:20:01.777Z,0
2016-07-23T00:21:01.822Z,0
2016-07-23T00:22:01.775Z,0
2016-07-23T00:23:01.791Z,0
2016-07-23T00:24:01.785Z,0
2016-07-23T00:25:01.802Z,0
2016-07-23T00:26:01.821Z,0
2016-07-23T00:27:01.827Z,0
2016-07-23T00:28:01.798Z,0
2016-07-23T00:29:01.796Z,0
2016-07-23T00:30:01.804Z,0
2016-07-23T00:31:01.838Z,0
2016-07-23T00:32:01.750Z,0
2016-07-23T00:33:01.776Z,0
2016-07-23T00:34:01.792Z,0
2016-07-23T00:35:01.839Z,0
2016-07-23T00:36:01.778Z,0
2016-07-23T00:37:01.826Z,0
2016-07-23T00:38:01.838Z,0
2016-07-23T00:39:01.803Z,0
2016-07-23T00:40:01.833Z,0
2016-07-23T00:41:01.802Z,0
2016-07-23T00:42:01.787Z,0
2016-07-23T00:43:02.383Z,0
2016-07-23T00:44:01.879Z,0
2016-07-23T00:45:01.812Z,0
2016-07-23T00:46:01.796Z,0
2016-07-23T00:47:01.887Z,0
2016-07-23T00:48:01.772Z,0
2016-07-23T00:49:01.802Z,0
2016-07-23T00:50:01.790Z,0
2016-07-23T00:51:01.794Z,0
2016-07-23T00:52:01.774Z,0
2016-07-23T00:53:01.804Z,0
2016-07-23T00:54:01.835Z,0
2016-07-23T00:55:01.810Z,0
2016-07-23T00:56:01.802Z,0
2016-07-23T00:57:01.824Z,0
2016-07-23T00:58:01.786Z,0
2016-07-23T00:59:01.824Z,0
2016-07-23T01:00:01.815Z,0
2016-07-23T01:01:01.865Z,0
2016-07-23T01:02:01.894Z,0
2016-07-23T01:03:01.809Z,0
2016-07-23T01:04:01.834Z,0
2016-07-23T01:05:01.834Z,0
2016-07-23T01:06:01.828Z,0
2016-07-23T01:07:01.986Z,0
2016-07-23T01:08:01.835Z,0
2016-07-23T01:09:01.835Z,0
2016-07-23T01:10:01.838Z,0
2016-07-23T01:11:01.805Z,0
2016-07-23T01:12:01.799Z,0
2016-07-23T01:13:01.836Z,0
2016-07-23T01:14:01.798Z,0
2016-07-23T01:15:01.800Z,0
2016-07-23T01:16:01.850Z,0
2016-07-23T01:17:01.837Z,0
2016-07-23T01:18:01.820Z,0
2016-07-23T01:19:01.841Z,0
2016-07-23T01:20:01.824Z,0
2016-07-23T01:21:01.838Z,0
2016-07-23T01:22:01.837Z,0
2016-07-23T01:23:01.870Z,0
2016-07-23T01:24:01.833Z,0
2016-07-23T01:25:01.910Z,0
2016-07-23T01:26:01.805Z,0
2016-07-23T01:27:01.795Z,0
2016-07-23T01:28:01.826Z,0
2016-07-23T01:29:01.835Z,0
2016-07-23T01:30:01.838Z,0
2016-07-23T01:31:01.867Z,0
2016-07-23T01:32:01.836Z,0
2016-07-23T01:33:01.848Z,0
2016-07-23T01:34:01.861Z,0
2016-07-23T01:35:01.838Z,0
2016-07-23T01:36:01.868Z,0
2016-07-23T01:37:01.864Z,0
2016-07-23T01:38:01.838Z,0
2016-07-23T01:39:01.875Z,0
2016-07-23T01:40:01.868Z,0
2016-07-23T01:41:01.891Z,0
2016-07-23T01:42:01.898Z,0
2016-07-23T01:43:01.868Z,0
2016-07-23T01:44:01.876Z,0
2016-07-23T01:45:01.882Z,0
2016-07-23T01:46:01.896Z,0
2016-07-23T01:47:01.916Z,0
2016-07-23T01:48:01.904Z,0
2016-07-23T01:49:01.904Z,0
2016-07-23T01:50:12.891Z,0
2016-07-23T01:51:01.899Z,0
2016-07-23T01:52:01.893Z,0
2016-07-23T01:53:01.898Z,0
2016-07-23T01:54:01.907Z,0
2016-07-23T01:55:01.839Z,0
2016-07-23T01:56:01.839Z,0
2016-07-23T01:57:01.873Z,0
2016-07-23T01:58:01.870Z,0
2016-07-23T01:59:01.883Z,0
2016-07-23T02:00:01.843Z,0
2016-07-23T02:01:01.825Z,0
2016-07-23T02:02:01.860Z,0
2016-07-23T02:03:01.874Z,0
2016-07-23T02:04:01.885Z,0
2016-07-23T02:05:01.876Z,0
2016-07-23T02:06:01.927Z,0
2016-07-23T02:07:01.889Z,0
2016-07-23T02:08:01.880Z,0
2016-07-23T02:09:01.868Z,0
2016-07-23T02:10:01.874Z,0
2016-07-23T02:11:01.847Z,0
2016-07-23T02:12:01.870Z,0
2016-07-23T02:13:01.882Z,0
2016-07-23T02:14:01.930Z,0
2016-07-23T02:15:01.870Z,0
2016-07-23T02:16:01.912Z,0
2016-07-23T02:17:01.859Z,0
2016-07-23T02:18:01.881Z,0
2016-07-23T02:19:01.901Z,0
2016-07-23T02:20:01.929Z,0
2016-07-23T02:21:01.897Z,0
2016-07-23T02:22:01.860Z,0
2016-07-23T02:23:01.900Z,0
2016-07-23T02:24:01.875Z,0
2016-07-23T02:25:01.879Z,0
2016-07-23T02:26:01.926Z,0
2016-07-23T02:27:01.899Z,0
2016-07-23T02:28:01.976Z,0
2016-07-23T02:29:01.895Z,0
2016-07-23T02:30:01.899Z,0
2016-07-23T02:31:01.890Z,0
2016-07-23T02:32:01.928Z,0
2016-07-23T02:33:01.892Z,0
2016-07-23T02:34:01.917Z,0
2016-07-23T02:35:01.917Z,0
2016-07-23T02:36:01.958Z,0
2016-07-23T02:37:01.903Z,0
2016-07-23T02:38:01.916Z,0
2016-07-23T02:39:01.905Z,0
2016-07-23T02:40:01.931Z,0
2016-07-23T02:41:01.908Z,0
2016-07-23T02:42:01.931Z,0
2016-07-23T02:43:01.915Z,0
2016-07-23T02:44:01.943Z,0
2016-07-23T02:45:01.931Z,0
2016-07-23T02:46:01.907Z,0
2016-07-23T02:47:01.920Z,0
2016-07-23T02:48:01.936Z,0
2016-07-23T02:49:01.905Z,0
2016-07-23T02:50:01.910Z,0
2016-07-23T02:51:01.929Z,0
2016-07-23T02:52:01.934Z,0
2016-07-23T02:53:01.896Z,0
2016-07-23T02:54:01.986Z,0
2016-07-23T02:55:01.941Z,0
2016-07-23T02:56:01.913Z,0
2016-07-23T02:57:01.957Z,0
2016-07-23T02:58:01.960Z,4
2016-07-23T02:59:01.951Z,4
2016-07-23T03:00:01.941Z,4
2016-07-23T03:01:01.926Z,0
2016-07-23T03:02:01.923Z,0
2016-07-23T03:03:01.917Z,4
2016-07-23T03:04:01.925Z,4
2016-07-23T03:05:01.934Z,4
2016-07-23T03:06:01.868Z,8
2016-07-23T03:07:01.916Z,4
2016-07-23T03:08:01.923Z,4
2016-07-23T03:09:01.931Z,8
2016-07-23T03:10:01.903Z,8
2016-07-23T03:11:01.948Z,8
2016-07-23T03:12:01.914Z,8
2016-07-23T03:13:01.931Z,12
2016-07-23T03:14:01.963Z,12
2016-07-23T03:15:01.961Z,16
2016-07-23T03:16:01.938Z,16
2016-07-23T03:17:01.931Z,20
2016-07-23T03:18:01.943Z,24
2016-07-23T03:19:01.966Z,28
2016-07-23T03:20:01.931Z,28
2016-07-23T03:21:01.994Z,36
2016-07-23T03:22:01.976Z,36
2016-07-23T03:23:01.933Z,44
2016-07-23T03:24:01.934Z,48
2016-07-23T03:25:01.948Z,52
2016-07-23T03:26:01.977Z,56
2016-07-23T03:27:01.936Z,60
2016-07-23T03:28:01.948Z,72
2016-07-23T03:29:01.961Z,76
2016-07-23T03:30:02.003Z,84
2016-07-23T03:31:01.959Z,88
2016-07-23T03:32:01.992Z,96
2016-07-23T03:33:01.975Z,104
2016-07-23T03:34:01.960Z,108
2016-07-23T03:35:01.994Z,116
2016-07-23T03:36:01.952Z,128
2016-07-23T03:37:01.933Z,132
2016-07-23T03:38:01.951Z,144
2016-07-23T03:39:01.958Z,152
2016-07-23T03:40:01.997Z,164
2016-07-23T03:41:01.971Z,180
2016-07-23T03:42:01.948Z,188
2016-07-23T03:43:01.957Z,204
2016-07-23T03:44:01.964Z,220
2016-07-23T03:45:01.984Z,236
2016-07-23T03:46:01.971Z,256
2016-07-23T03:47:01.994Z,276
2016-07-23T03:48:01.963Z,300
2016-07-23T03:49:01.984Z,328
2016-07-23T03:50:01.964Z,348
2016-07-23T03:51:01.962Z,376
2016-07-23T03:52:01.958Z,404
2016-07-23T03:53:02.983Z,436
2016-07-23T03:54:01.984Z,468
2016-07-23T03:55:01.962Z,496
2016-07-23T03:56:01.987Z,528
2016-07-23T03:57:01.990Z,560
2016-07-23T03:58:01.979Z,592
2016-07-23T03:59:01.981Z,624
2016-07-23T04:00:01.964Z,656
2016-07-23T04:01:01.998Z,692
2016-07-23T04:02:01.965Z,728
2016-07-23T04:03:01.973Z,764
2016-07-23T04:04:02.008Z,812
2016-07-23T04:05:01.994Z,860
2016-07-23T04:06:02.001Z,912
2016-07-23T04:07:01.983Z,964
2016-07-23T04:08:01.994Z,1032
2016-07-23T04:09:01.964Z,1096
2016-07-23T04:10:01.968Z,1168
2016-07-23T04:11:01.990Z,1236
2016-07-23T04:12:01.966Z,1312
2016-07-23T04:13:02.039Z,1388
2016-07-23T04:14:02.745Z,1456
2016-07-23T04:15:01.950Z,1512
2016-07-23T04:16:02.050Z,1568
2016-07-23T04:17:01.960Z,1624
2016-07-23T04:18:01.970Z,1676
2016-07-23T04:19:01.986Z,1728
2016-07-23T04:20:02.024Z,1772
2016-07-23T04:21:01.997Z,1812
2016-07-23T04:22:01.996Z,1856
2016-07-23T04:23:01.996Z,1900
2016-07-23T04:24:01.988Z,1952
2016-07-23T04:25:02.010Z,1984
2016-07-23T04:26:01.999Z,2000
2016-07-23T04:27:01.992Z,2024
2016-07-23T04:28:01.970Z,2052
2016-07-23T04:29:02.042Z,2084
2016-07-23T04:30:01.974Z,2120
2016-07-23T04:31:01.981Z,2164
2016-07-23T04:32:01.972Z,2216
2016-07-23T04:33:02.008Z,2264
2016-07-23T04:34:01.997Z,2308
2016-07-23T04:35:02.002Z,2364
2016-07-23T04:36:02.035Z,2432
2016-07-23T04:37:02.025Z,2496
2016-07-23T04:38:01.997Z,2572
2016-07-23T04:39:02.034Z,2656
2016-07-23T04:40:02.048Z,2736
2016-07-23T04:41:02.031Z,2824
2016-07-23T04:42:02.027Z,2916
2016-07-23T04:43:02.023Z,3016
2016-07-23T04:44:01.995Z,3124
2016-07-23T04:45:02.024Z,3232
2016-07-23T04:46:02.036Z,3356
2016-07-23T04:47:02.014Z,3464
2016-07-23T04:48:02.042Z,3592
2016-07-23T04:49:02.084Z,3720
2016-07-23T04:50:02.014Z,3840
2016-07-23T04:51:01.997Z,3960
2016-07-23T04:52:02.077Z,4044
2016-07-23T04:53:02.014Z,4132
2016-07-23T04:54:02.036Z,4188
2016-07-23T04:55:02.040Z,4220
2016-07-23T04:56:02.060Z,4248
2016-07-23T04:57:02.007Z,4300
2016-07-23T04:58:02.020Z,4368
2016-07-23T04:59:02.044Z,4432
2016-07-23T05:00:02.054Z,4520
2016-07-23T05:01:02.050Z,4612
2016-07-23T05:02:02.035Z,4728
2016-07-23T05:03:02.042Z,4880
2016-07-23T05:04:02.027Z,5056
2016-07-23T05:05:02.047Z,5232
2016-07-23T05:06:02.067Z,5408
2016-07-23T05:07:02.027Z,5580
2016-07-23T05:08:02.068Z,5736
2016-07-23T05:09:02.010Z,5884
2016-07-23T05:10:02.081Z,6020
2016-07-23T05:11:02.060Z,6140
2016-07-23T05:12:02.371Z,6248
2016-07-23T05:13:02.046Z,6352
2016-07-23T05:14:02.112Z,6448
2016-07-23T05:15:02.033Z,6544
2016-07-23T05:16:02.035Z,6640
2016-07-23T05:17:02.135Z,6752
2016-07-23T05:18:02.025Z,6856
2016-07-23T05:19:02.059Z,6960
2016-07-23T05:20:02.011Z,7044
2016-07-23T05:21:02.029Z,7112
2016-07-23T05:22:02.041Z,7152
2016-07-23T05:23:02.047Z,7192
2016-07-23T05:24:02.057Z,7272
2016-07-23T05:25:02.651Z,7336
2016-07-23T05:26:02.126Z,7404
2016-07-23T05:27:02.119Z,7476
2016-07-23T05:28:02.083Z,7504
2016-07-23T05:29:02.073Z,7552
2016-07-23T05:30:02.066Z,7628
2016-07-23T05:31:02.059Z,7728
2016-07-23T05:32:02.213Z,7848
2016-07-23T05:33:02.075Z,7896
2016-07-23T05:34:02.079Z,7896
2016-07-23T05:35:02.749Z,7904
2016-07-23T05:36:02.342Z,7840
2016-07-23T05:37:02.213Z,7852
2016-07-23T05:38:03.069Z,7336
2016-07-23T05:39:02.612Z,7316
2016-07-23T05:40:02.072Z,7340
2016-07-23T05:41:02.086Z,7412
2016-07-23T05:42:02.055Z,7476
2016-07-23T05:43:02.090Z,7512
2016-07-23T05:44:02.142Z,7540
2016-07-23T05:45:03.186Z,7640
2016-07-23T05:46:02.184Z,7796
2016-07-23T05:47:02.241Z,8472
2016-07-23T05:48:02.272Z,8592
2016-07-23T05:49:02.211Z,8728
2016-07-23T05:50:02.183Z,8848
2016-07-23T05:51:02.242Z,8980
2016-07-23T05:52:02.196Z,9128
2016-07-23T05:53:02.571Z,9236
2016-07-23T05:54:02.636Z,9376
2016-07-23T05:55:02.571Z,9504
2016-07-23T05:56:02.131Z,9640
2016-07-23T05:57:02.123Z,9740
2016-07-23T05:58:02.094Z,9824
2016-07-23T05:59:02.108Z,9916
2016-07-23T06:00:02.090Z,10020
2016-07-23T06:01:02.137Z,10112
2016-07-23T06:02:02.086Z,10200
2016-07-23T06:03:02.123Z,10288
2016-07-23T06:04:02.124Z,10432
2016-07-23T06:05:02.091Z,10560
2016-07-23T06:06:02.143Z,10724
2016-07-23T06:07:02.091Z,10984
2016-07-23T06:08:02.151Z,11236
2016-07-23T06:09:02.126Z,10776
2016-07-23T06:10:02.150Z,11004
2016-07-23T06:11:02.152Z,11324
2016-07-23T06:12:02.096Z,11700
2016-07-23T06:13:02.122Z,12044
2016-07-23T06:14:02.150Z,12304
2016-07-23T06:15:02.122Z,12584
2016-07-23T06:16:02.128Z,14576
